createdAt,value
2023-03-24T00:06:06.409Z,0.90
2023-03-24T00:08:39.478Z,1.00
2023-03-24T00:11:13.232Z,1.00
2023-03-24T00:13:45.021Z,1.10
2023-03-24T00:16:21.172Z,0.85
2023-03-24T00:18:54.613Z,0.80
2023-03-24T00:21:28.103Z,0.63
2023-03-24T00:24:00.312Z,0.60
2023-03-24T00:26:32.043Z,0.70
2023-03-24T00:29:03.666Z,0.85
2023-03-24T00:31:35.725Z,0.70
2023-03-24T00:34:08.480Z,0.60
2023-03-24T00:36:40.164Z,0.98
2023-03-24T00:39:11.546Z,0.77
2023-03-24T00:44:19.917Z,0.70
2023-03-24T00:47:01.567Z,0.90
2023-03-24T00:49:48.435Z,0.73
2023-03-24T00:52:26.797Z,0.88
2023-03-24T00:54:59.885Z,0.90
2023-03-24T00:57:36.480Z,0.73
2023-03-24T01:00:16.109Z,0.80
2023-03-24T01:02:55.072Z,0.70
2023-03-24T01:05:32.781Z,0.80
2023-03-24T01:08:04.829Z,0.65
2023-03-24T01:10:52.088Z,0.80
2023-03-24T01:13:28.887Z,0.70
2023-03-24T01:16:00.539Z,0.70
2023-03-24T01:18:32.163Z,0.98
2023-03-24T01:21:04.055Z,0.90
2023-03-24T01:23:36.122Z,0.70
2023-03-24T01:26:10.356Z,0.88
2023-03-24T01:28:45.382Z,0.88
2023-03-24T01:31:17.686Z,0.70
2023-03-24T01:33:49.035Z,0.70
2023-03-24T01:36:20.541Z,0.80
2023-03-24T01:38:51.956Z,0.70
2023-03-24T01:41:23.643Z,0.73
2023-03-24T01:43:55.048Z,0.68
2023-03-24T01:49:07.747Z,0.90
2023-03-24T01:51:47.964Z,0.73
2023-03-24T01:54:43.252Z,0.80
2023-03-24T01:57:25.922Z,1.10
2023-03-24T01:59:59.753Z,0.98
2023-03-24T02:02:56.426Z,0.80
2023-03-24T02:05:35.982Z,1.20
2023-03-24T02:08:23.307Z,1.02
2023-03-24T02:10:56.982Z,0.90
2023-03-24T02:13:33.424Z,0.70
2023-03-24T02:16:32.278Z,1.05
2023-03-24T02:19:28.168Z,0.95
2023-03-24T02:21:59.538Z,0.98
2023-03-24T02:24:30.737Z,1.00
2023-03-24T02:27:23.055Z,0.70
2023-03-24T02:30:25.842Z,0.90
2023-03-24T02:33:29.471Z,0.85
2023-03-24T02:36:38.574Z,0.98
2023-03-24T02:39:19.298Z,0.80
2023-03-24T02:41:53.942Z,0.95
2023-03-24T02:44:51.093Z,0.77
2023-03-24T02:47:32.713Z,0.73
2023-03-24T02:50:28.454Z,0.93
2023-03-24T02:53:08.858Z,0.82
2023-03-24T02:55:58.254Z,0.82
2023-03-24T03:01:11.037Z,0.85
2023-03-24T03:04:12.117Z,0.70
2023-03-24T03:06:47.126Z,0.90
2023-03-24T03:09:20.520Z,0.90
2023-03-24T03:11:54.199Z,1.10
2023-03-24T03:14:50.704Z,0.80
2023-03-24T03:17:25.338Z,0.90
2023-03-24T03:20:06.491Z,0.90
2023-03-24T03:22:49.211Z,0.88
2023-03-24T03:25:24.669Z,0.80
2023-03-24T03:28:02.617Z,1.17
2023-03-24T03:30:41.677Z,1.17
2023-03-24T03:33:26.517Z,1.20
2023-03-24T03:36:08.218Z,1.00
2023-03-24T03:41:33.143Z,0.90
2023-03-24T03:44:05.302Z,1.20
2023-03-24T03:49:12.480Z,0.90
2023-03-24T03:51:44.036Z,0.90
2023-03-24T03:56:51.473Z,0.95
2023-03-24T03:59:37.712Z,0.98
2023-03-24T04:02:35.728Z,1.10
2023-03-24T04:05:19.398Z,1.00
2023-03-24T04:11:04.313Z,0.80
2023-03-24T04:13:53.412Z,0.88
2023-03-24T04:17:12.501Z,1.02
2023-03-24T04:20:07.162Z,1.00
2023-03-24T04:22:41.473Z,2.00
2023-03-24T04:25:37.821Z,1.80
2023-03-24T04:28:20.702Z,1.92
2023-03-24T04:31:19.434Z,0.90
2023-03-24T04:33:59.836Z,0.80
2023-03-24T04:36:44.017Z,0.80
2023-03-24T04:39:32.384Z,0.75
2023-03-24T04:42:10.293Z,0.90
2023-03-24T04:44:43.285Z,0.82
2023-03-24T04:47:40.136Z,0.90
2023-03-24T04:50:34.262Z,0.63
2023-03-24T04:53:12.015Z,0.70
2023-03-24T04:55:46.702Z,1.20
2023-03-24T04:58:19.354Z,1.17
2023-03-24T05:00:52.916Z,1.30
2023-03-24T05:03:24.485Z,0.82
2023-03-24T05:05:56.330Z,0.65
2023-03-24T05:08:27.944Z,0.60
2023-03-24T05:13:30.700Z,0.70
2023-03-24T05:16:05.455Z,0.55
2023-03-24T05:18:52.023Z,0.70
2023-03-24T05:21:23.456Z,0.70
2023-03-24T05:23:55.299Z,0.70
2023-03-24T05:26:29.969Z,0.77
2023-03-24T05:29:16.905Z,0.70
2023-03-24T05:31:49.073Z,0.80
2023-03-24T05:34:24.382Z,0.77
2023-03-24T05:37:18.401Z,1.00
2023-03-24T05:39:55.574Z,0.75
2023-03-24T05:42:47.480Z,0.80
2023-03-24T05:45:19.554Z,0.75
2023-03-24T05:47:52.873Z,0.75
2023-03-24T05:50:30.972Z,0.70
2023-03-24T05:53:03.517Z,0.70
2023-03-24T05:56:04.466Z,0.85
2023-03-24T05:58:54.046Z,0.75
2023-03-24T06:01:27.095Z,2.13
2023-03-24T06:04:05.747Z,1.75
2023-03-24T06:06:37.587Z,1.20
2023-03-24T06:09:09.331Z,0.80
2023-03-24T06:14:13.366Z,0.80
2023-03-24T06:17:00.730Z,0.70
2023-03-24T06:19:35.416Z,1.08
2023-03-24T06:22:23.245Z,1.30
2023-03-24T06:24:55.280Z,0.80
2023-03-24T06:27:31.967Z,0.90
2023-03-24T06:30:04.253Z,1.45
2023-03-24T06:32:36.195Z,0.90
2023-03-24T06:37:46.419Z,0.82
2023-03-24T06:40:19.120Z,0.80
2023-03-24T06:42:58.022Z,0.70
2023-03-24T06:45:31.883Z,1.00
2023-03-24T06:48:04.008Z,0.95
2023-03-24T06:53:13.183Z,0.82
2023-03-24T06:55:45.245Z,0.70
2023-03-24T06:58:19.353Z,0.82
2023-03-24T07:01:04.289Z,0.82
2023-03-24T07:03:43.717Z,0.80
2023-03-24T07:06:24.302Z,0.70
2023-03-24T07:09:00.283Z,0.75
2023-03-24T07:11:33.902Z,0.80
2023-03-24T07:14:07.462Z,0.80
2023-03-24T07:16:40.199Z,0.63
2023-03-24T07:19:36.467Z,0.70
2023-03-24T07:22:25.881Z,0.80
2023-03-24T07:25:16.506Z,0.95
2023-03-24T07:27:59.159Z,0.90
2023-03-24T07:30:39.826Z,0.75
2023-03-24T07:35:48.815Z,0.65
2023-03-24T07:38:21.250Z,0.90
2023-03-24T07:40:55.538Z,0.75
2023-03-24T07:43:27.200Z,0.68
2023-03-24T07:46:20.971Z,0.70
2023-03-24T07:48:52.488Z,0.60
2023-03-24T07:54:00.041Z,0.90
2023-03-24T07:56:41.618Z,0.93
2023-03-24T07:59:15.409Z,0.80
2023-03-24T08:02:22.592Z,0.75
2023-03-24T08:05:16.020Z,0.73
2023-03-24T08:07:59.794Z,0.93
2023-03-24T08:10:32.945Z,0.73
2023-03-24T08:13:04.940Z,0.60
2023-03-24T08:15:37.433Z,0.90
2023-03-24T08:18:09.200Z,0.88
2023-03-24T08:20:40.657Z,0.90
2023-03-24T08:23:23.255Z,0.82
2023-03-24T08:25:58.796Z,1.00
2023-03-24T08:28:30.305Z,1.00
2023-03-24T08:31:02.313Z,0.93
2023-03-24T08:36:05.007Z,0.90
2023-03-24T08:38:40.432Z,0.95
2023-03-24T08:41:11.890Z,0.70
2023-03-24T08:43:43.316Z,0.82
2023-03-24T08:46:16.858Z,0.60
2023-03-24T08:48:48.448Z,0.80
2023-03-24T08:51:20.357Z,1.00
2023-03-24T08:53:53.919Z,0.95
2023-03-24T08:56:25.911Z,0.70
2023-03-24T08:58:59.512Z,0.80
2023-03-24T09:01:31.724Z,0.70
2023-03-24T09:04:02.967Z,0.70
2023-03-24T09:06:35.015Z,0.80
2023-03-24T09:09:06.688Z,0.73
2023-03-24T09:11:38.672Z,0.90
2023-03-24T09:14:10.357Z,1.50
2023-03-24T09:16:42.195Z,1.40
2023-03-24T09:19:13.981Z,1.10
2023-03-24T09:21:48.601Z,1.00
2023-03-24T09:24:20.456Z,0.80
2023-03-24T09:26:51.707Z,1.02
2023-03-24T09:29:23.184Z,8.05
2023-03-24T09:31:55.519Z,5.75
2023-03-24T09:34:27.478Z,4.30
2023-03-24T09:36:59.073Z,3.20
2023-03-24T09:39:30.454Z,2.15
2023-03-24T09:42:02.178Z,1.63
2023-03-24T09:44:42.798Z,1.30
2023-03-24T09:47:37.117Z,1.23
2023-03-24T09:50:36.884Z,1.10
2023-03-24T09:53:38.744Z,1.40
2023-03-24T09:56:21.402Z,1.40
2023-03-24T09:59:20.285Z,1.40
2023-03-24T10:01:52.358Z,1.50
2023-03-24T10:04:28.440Z,1.67
2023-03-24T10:07:37.058Z,1.80
2023-03-24T10:10:23.474Z,1.40
2023-03-24T10:12:56.305Z,1.50
2023-03-24T10:15:40.778Z,2.50
2023-03-24T10:18:14.975Z,2.70
2023-03-24T10:20:47.781Z,2.70
2023-03-24T10:23:43.045Z,3.35
2023-03-24T10:26:45.261Z,2.28
2023-03-24T10:29:37.614Z,2.30
2023-03-24T10:32:23.627Z,2.13
2023-03-24T10:35:01.028Z,1.60
2023-03-24T10:37:33.485Z,2.05
2023-03-24T10:40:08.387Z,2.40
2023-03-24T10:42:40.316Z,2.38
2023-03-24T10:45:16.828Z,3.30
2023-03-24T10:47:49.608Z,2.50
2023-03-24T10:50:21.331Z,2.90
2023-03-24T10:52:53.977Z,4.00
2023-03-24T10:55:32.905Z,4.75
2023-03-24T10:58:04.432Z,5.78
2023-03-24T11:00:38.231Z,3.72
2023-03-24T11:03:16.468Z,2.70
2023-03-24T11:05:48.316Z,2.53
2023-03-24T11:08:20.102Z,4.30
2023-03-24T11:10:52.241Z,4.88
2023-03-24T11:13:36.560Z,4.38
2023-03-24T11:16:18.640Z,4.47
2023-03-24T11:19:05.318Z,4.47
2023-03-24T11:21:41.160Z,4.30
2023-03-24T11:24:19.007Z,4.38
2023-03-24T11:27:04.771Z,4.45
2023-03-24T11:29:41.449Z,5.40
2023-03-24T11:32:23.381Z,5.28
2023-03-24T11:35:08.872Z,4.78
2023-03-24T11:37:42.889Z,5.40
2023-03-24T11:40:27.601Z,4.68
2023-03-24T11:43:06.306Z,4.97
2023-03-24T11:45:43.916Z,5.10
2023-03-24T11:48:37.078Z,5.55
2023-03-24T11:51:09.931Z,5.05
2023-03-24T11:53:55.311Z,5.90
2023-03-24T11:56:40.631Z,4.97
2023-03-24T11:59:39.471Z,4.15
2023-03-24T12:02:13.792Z,4.63
2023-03-24T12:05:25.784Z,4.13
2023-03-24T12:08:15.128Z,4.03
2023-03-24T12:11:11.237Z,4.32
2023-03-24T12:13:50.478Z,4.00
2023-03-24T12:16:27.640Z,4.15
2023-03-24T12:19:17.076Z,4.20
2023-03-24T12:22:13.680Z,3.97
2023-03-24T12:24:57.001Z,4.15
2023-03-24T12:27:40.584Z,4.93
2023-03-24T12:30:39.140Z,5.20
2023-03-24T12:33:21.389Z,5.03
2023-03-24T12:36:09.883Z,5.25
2023-03-24T12:38:41.196Z,5.03
2023-03-24T12:41:33.798Z,4.60
2023-03-24T12:44:23.087Z,4.95
2023-03-24T12:47:00.460Z,4.47
2023-03-24T12:49:46.777Z,4.45
2023-03-24T12:52:28.597Z,4.85
2023-03-24T12:55:15.751Z,4.38
2023-03-24T12:58:01.785Z,4.57
2023-03-24T13:01:01.128Z,4.25
2023-03-24T13:03:43.014Z,4.43
2023-03-24T13:06:22.964Z,4.68
2023-03-24T13:09:28.432Z,4.90
2023-03-24T13:12:07.489Z,4.55
2023-03-24T13:14:50.870Z,4.20
2023-03-24T13:17:35.694Z,4.22
2023-03-24T13:20:09.852Z,4.15
2023-03-24T13:22:41.105Z,4.43
2023-03-24T13:25:28.134Z,3.97
2023-03-24T13:28:03.287Z,4.85
2023-03-24T13:30:40.812Z,4.55
2023-03-24T13:33:35.060Z,4.70
2023-03-24T13:36:30.023Z,4.43
2023-03-24T13:39:07.090Z,4.95
2023-03-24T13:41:43.982Z,4.40
2023-03-24T13:44:42.890Z,4.80
2023-03-24T13:47:19.522Z,4.47
2023-03-24T13:50:08.876Z,4.20
2023-03-24T13:52:41.606Z,3.92
2023-03-24T13:55:17.758Z,3.25
2023-03-24T13:58:10.239Z,3.40
2023-03-24T14:01:13.687Z,3.00
2023-03-24T14:03:49.493Z,3.28
2023-03-24T14:06:24.309Z,3.22
2023-03-24T14:08:55.545Z,3.60
2023-03-24T14:11:42.878Z,3.67
2023-03-24T14:14:17.794Z,3.70
2023-03-24T14:17:06.844Z,3.67
2023-03-24T14:19:44.556Z,3.88
2023-03-24T14:22:35.346Z,3.60
2023-03-24T14:25:27.955Z,3.70
2023-03-24T14:28:33.632Z,3.72
2023-03-24T14:31:35.697Z,3.42
2023-03-24T14:34:22.646Z,4.03
2023-03-24T14:37:05.268Z,3.78
2023-03-24T14:39:43.057Z,3.63
2023-03-24T14:42:36.081Z,3.55
2023-03-24T14:45:33.351Z,3.35
2023-03-24T14:48:06.073Z,3.28
2023-03-24T14:50:37.552Z,3.20
2023-03-24T14:53:15.013Z,2.97
2023-03-24T14:55:46.687Z,3.08
2023-03-24T14:58:26.908Z,3.13
2023-03-24T15:03:51.886Z,3.55
2023-03-24T15:06:27.683Z,3.00
2023-03-24T15:09:07.446Z,3.20
2023-03-24T15:11:41.623Z,2.95
2023-03-24T15:14:24.632Z,3.63
2023-03-24T15:16:58.192Z,3.78
2023-03-24T15:19:32.191Z,3.88
2023-03-24T15:22:08.249Z,3.10
2023-03-24T15:24:40.664Z,3.90
2023-03-24T15:27:25.533Z,3.40
2023-03-24T15:30:00.507Z,3.60
2023-03-24T15:32:40.536Z,3.47
2023-03-24T15:35:20.261Z,3.30
2023-03-24T15:37:58.848Z,3.65
2023-03-24T15:40:31.976Z,4.05
2023-03-24T15:43:05.386Z,3.70
2023-03-24T15:46:04.787Z,3.53
2023-03-24T15:48:40.995Z,3.70
2023-03-24T15:51:14.308Z,3.67
2023-03-24T15:53:50.537Z,3.95
2023-03-24T15:56:33.289Z,3.45
2023-03-24T15:59:14.201Z,3.38
2023-03-24T16:01:46.304Z,3.40
2023-03-24T16:04:20.654Z,3.47
2023-03-24T16:06:56.494Z,3.75
2023-03-24T16:09:28.543Z,3.20
2023-03-24T16:12:00.338Z,3.17
2023-03-24T16:14:34.145Z,2.92
2023-03-24T16:17:06.030Z,2.78
2023-03-24T16:19:37.557Z,2.92
2023-03-24T16:22:15.387Z,2.47
2023-03-24T16:24:49.540Z,2.80
2023-03-24T16:27:21.177Z,2.90
2023-03-24T16:29:52.660Z,2.42
2023-03-24T16:32:24.052Z,2.13
2023-03-24T16:34:55.358Z,2.55
2023-03-24T16:37:26.870Z,2.22
2023-03-24T16:39:58.469Z,2.30
2023-03-24T16:42:29.463Z,2.38
2023-03-24T16:45:00.569Z,2.60
2023-03-24T16:47:35.835Z,2.10
2023-03-24T16:50:39.961Z,2.67
2023-03-24T16:53:12.075Z,2.03
2023-03-24T16:55:45.916Z,2.20
2023-03-24T16:58:18.167Z,2.10
2023-03-24T17:00:51.512Z,2.28
2023-03-24T17:03:24.903Z,1.90
2023-03-24T17:05:56.920Z,2.53
2023-03-24T17:08:28.692Z,2.10
2023-03-24T17:11:00.192Z,2.10
2023-03-24T17:13:31.514Z,2.15
2023-03-24T17:16:02.976Z,2.10
2023-03-24T17:21:05.915Z,2.05
2023-03-24T17:23:38.470Z,2.20
2023-03-24T17:26:09.980Z,2.10
2023-03-24T17:28:41.731Z,2.25
2023-03-24T17:31:12.970Z,2.30
2023-03-24T17:33:44.567Z,2.30
2023-03-24T17:36:19.279Z,2.33
2023-03-24T17:38:50.860Z,2.20
2023-03-24T17:41:22.446Z,2.53
2023-03-24T17:43:53.820Z,2.20
2023-03-24T17:46:25.326Z,2.08
2023-03-24T17:48:57.035Z,2.20
2023-03-24T17:51:29.658Z,2.22
2023-03-24T17:54:01.405Z,2.35
2023-03-24T17:56:33.030Z,1.88
2023-03-24T17:59:05.174Z,2.30
2023-03-24T18:01:36.556Z,2.40
2023-03-24T18:04:08.413Z,2.33
2023-03-24T18:06:40.129Z,2.50
2023-03-24T18:11:42.682Z,2.22
2023-03-24T18:14:14.225Z,2.95
2023-03-24T18:16:45.696Z,2.80
2023-03-24T18:19:17.795Z,3.28
2023-03-24T18:21:49.096Z,3.38
2023-03-24T18:24:20.284Z,3.50
2023-03-24T18:26:51.251Z,3.60
2023-03-24T18:29:25.743Z,4.72
2023-03-24T18:31:57.388Z,3.65
2023-03-24T18:34:29.510Z,4.03
2023-03-24T18:37:01.877Z,3.60
2023-03-24T18:42:03.507Z,4.03
2023-03-24T18:44:34.694Z,4.22
2023-03-24T18:47:06.231Z,4.07
2023-03-24T18:49:37.728Z,5.20
2023-03-24T18:52:09.878Z,3.85
2023-03-24T18:54:41.291Z,3.72
2023-03-24T18:57:13.561Z,3.50
2023-03-24T18:59:45.138Z,4.10
2023-03-24T19:02:17.037Z,3.88
2023-03-24T19:04:49.682Z,4.13
2023-03-24T19:07:26.095Z,3.97
2023-03-24T19:09:57.975Z,3.70
2023-03-24T19:12:29.313Z,3.30
2023-03-24T19:15:00.505Z,3.30
2023-03-24T19:17:32.472Z,3.55
2023-03-24T19:20:06.540Z,3.75
2023-03-24T19:22:38.192Z,2.95
2023-03-24T19:25:11.000Z,3.40
2023-03-24T19:27:42.888Z,3.03
2023-03-24T19:30:14.976Z,3.17
2023-03-24T19:32:48.243Z,2.95
2023-03-24T19:35:19.711Z,3.33
2023-03-24T19:37:50.860Z,3.45
2023-03-24T19:40:22.109Z,3.50
2023-03-24T19:42:53.710Z,3.13
2023-03-24T19:45:25.177Z,2.58
2023-03-24T19:47:57.250Z,2.90
2023-03-24T19:50:28.683Z,2.53
2023-03-24T19:52:59.655Z,2.60
2023-03-24T19:55:31.460Z,2.85
2023-03-24T20:00:34.187Z,2.10
2023-03-24T20:03:05.655Z,2.55
2023-03-24T20:05:37.726Z,2.30
2023-03-24T20:10:41.767Z,1.80
2023-03-24T20:13:13.496Z,1.90
2023-03-24T20:15:45.125Z,2.10
2023-03-24T20:18:16.742Z,1.77
2023-03-24T20:20:48.547Z,2.05
2023-03-24T20:23:19.547Z,1.90
2023-03-24T20:25:51.395Z,2.45
2023-03-24T20:28:23.048Z,2.45
2023-03-24T20:33:25.429Z,2.60
2023-03-24T20:36:00.012Z,3.28
2023-03-24T20:38:32.347Z,3.00
2023-03-24T20:41:06.770Z,3.28
2023-03-24T20:43:39.429Z,3.15
2023-03-24T20:46:11.831Z,3.28
2023-03-24T20:48:43.456Z,3.40
2023-03-24T20:51:15.007Z,3.10
2023-03-24T20:53:48.003Z,3.05
2023-03-24T20:56:21.012Z,3.35
2023-03-24T20:58:52.174Z,2.97
2023-03-24T21:01:24.385Z,3.05
2023-03-24T21:04:02.108Z,3.40
2023-03-24T21:06:40.268Z,2.78
2023-03-24T21:09:11.590Z,3.35
2023-03-24T21:11:42.973Z,2.72
2023-03-24T21:14:14.296Z,3.17
2023-03-24T21:16:45.805Z,3.25
2023-03-24T21:19:18.037Z,2.58
2023-03-24T21:21:51.318Z,2.60
2023-03-24T21:24:22.815Z,2.22
2023-03-24T21:26:58.378Z,2.67
2023-03-24T21:29:29.933Z,2.40
2023-03-24T21:32:01.569Z,2.35
2023-03-24T21:34:33.049Z,2.30
2023-03-24T21:39:35.429Z,2.45
2023-03-24T21:42:08.431Z,2.10
2023-03-24T21:44:41.219Z,2.13
2023-03-24T21:47:12.727Z,2.22
2023-03-24T21:49:44.469Z,2.13
2023-03-24T21:52:15.921Z,2.20
2023-03-24T21:54:47.620Z,1.98
2023-03-24T21:57:19.331Z,2.20
2023-03-24T21:59:50.578Z,2.10
2023-03-24T22:02:24.171Z,2.25
2023-03-24T22:04:56.496Z,2.33
2023-03-24T22:07:27.943Z,1.75
2023-03-24T22:09:59.145Z,1.75
2023-03-24T22:12:30.506Z,1.75
2023-03-24T22:15:02.523Z,2.15
2023-03-24T22:17:34.153Z,2.00
2023-03-24T22:20:07.760Z,1.70
2023-03-24T22:22:40.714Z,1.75
2023-03-24T22:25:14.773Z,1.65
2023-03-24T22:27:46.526Z,1.63
2023-03-24T22:30:18.007Z,1.48
2023-03-24T22:32:49.572Z,1.38
2023-03-24T22:35:22.791Z,1.92
2023-03-24T22:37:54.401Z,1.20
2023-03-24T22:40:25.961Z,1.05
2023-03-24T22:42:57.286Z,1.08
2023-03-24T22:47:59.696Z,0.80
2023-03-24T22:50:31.143Z,0.90
2023-03-24T22:53:03.086Z,0.90
2023-03-24T22:55:34.365Z,1.20
2023-03-24T22:58:06.058Z,0.70
2023-03-24T23:03:08.247Z,0.68
2023-03-24T23:08:20.903Z,0.77
2023-03-24T23:10:52.729Z,0.80
2023-03-24T23:13:25.178Z,0.80
2023-03-24T23:15:56.919Z,0.70
2023-03-24T23:18:28.758Z,0.88
2023-03-24T23:21:12.531Z,0.80
2023-03-24T23:23:45.850Z,0.80
2023-03-24T23:26:26.144Z,0.75
2023-03-24T23:28:58.448Z,0.70
2023-03-24T23:31:30.506Z,0.85
2023-03-24T23:34:02.360Z,0.90
2023-03-24T23:36:35.587Z,0.90
2023-03-24T23:39:07.311Z,1.10
2023-03-24T23:41:38.597Z,0.70
2023-03-24T23:44:10.510Z,0.80
2023-03-24T23:46:41.930Z,0.80
2023-03-24T23:49:13.621Z,1.00
2023-03-24T23:51:44.994Z,0.75
2023-03-24T23:56:48.442Z,0.65
2023-03-24T23:59:20.129Z,0.60
